Time;durP1;ratioP1;P1;durP2;ratioP2;P2;SDS_P1;SDS_P2;PMS_P1;PMS_P2;Temp;Humidity;BMP_temperature;BMP_pressure;BME280_temperature;BME280_humidity;BME280_pressure;Samples;Min_cycle;Max_cycle;Signal;HPM_P1;HPM_P2
2023/09/23 00:01:05;;;;;;;9.35;5.85;;;;;;;21.13;70.16;99450.38;5087335;28;20280;-62
2023/09/23 00:03:33;;;;;;;7.93;4.97;;;;;;;21.13;69.81;99456.47;5090731;28;20200;-63
2023/09/23 00:06:03;;;;;;;8.38;4.57;;;;;;;21.10;70.23;99463.69;5091088;28;20200;-64
2023/09/23 00:08:31;;;;;;;6.10;4.82;;;;;;;21.04;70.09;99451.81;5085450;28;20201;-63
2023/09/23 00:11:01;;;;;;;9.27;5.20;;;;;;;21.03;70.71;99444.09;5088362;28;20547;-62
2023/09/23 00:13:30;;;;;;;7.60;5.10;;;;;;;21.03;70.75;99434.44;5091179;28;20216;-62
2023/09/23 00:15:58;;;;;;;5.82;4.65;;;;;;;21.06;70.57;99429.00;5090774;28;20273;-66
2023/09/23 00:18:26;;;;;;;9.68;5.10;;;;;;;21.08;70.50;99431.50;5086583;28;20236;-63
2023/09/23 00:20:55;;;;;;;10.85;4.82;;;;;;;21.08;70.60;99421.88;5086687;28;20229;-63
2023/09/23 00:23:23;;;;;;;6.07;4.50;;;;;;;21.04;70.59;99415.16;5089767;28;20208;-63
2023/09/23 00:25:51;;;;;;;6.40;4.82;;;;;;;21.05;70.71;99416.81;5089757;28;20200;-64
2023/09/23 00:28:20;;;;;;;8.23;5.35;;;;;;;21.06;70.77;99418.53;5089532;28;20335;-63
2023/09/23 00:30:48;;;;;;;10.40;4.90;;;;;;;21.08;71.11;99428.91;5085170;28;20204;-64
2023/09/23 00:33:17;;;;;;;13.68;5.93;;;;;;;21.10;71.16;99427.00;5090245;28;20204;-65
2023/09/23 00:35:47;;;;;;;7.93;4.60;;;;;;;21.07;71.09;99425.44;5089636;28;20228;-62
2023/09/23 00:38:18;;;;;;;7.35;4.43;;;;;;;21.01;70.93;99425.81;5090443;28;20223;-62
2023/09/23 00:40:47;;;;;;;5.35;4.20;;;;;;;20.97;70.99;99422.56;5084957;28;20800;-64
2023/09/23 00:43:17;;;;;;;8.32;4.93;;;;;;;20.98;71.06;99416.38;5081884;28;20197;-61
2023/09/23 00:45:48;;;;;;;4.85;4.25;;;;;;;20.98;71.18;99420.78;5089601;28;20315;-62
2023/09/23 00:48:20;;;;;;;6.05;4.80;;;;;;;20.97;71.35;99429.59;5084814;28;20193;-61
2023/09/23 00:50:51;;;;;;;8.07;4.85;;;;;;;20.93;71.60;99428.09;5088329;28;20196;-64
2023/09/23 00:53:21;;;;;;;7.35;5.15;;;;;;;20.87;71.85;99431.94;5084648;28;20283;-62
2023/09/23 00:55:54;;;;;;;8.27;5.47;;;;;;;20.84;72.30;99428.69;5090906;28;20204;-62
2023/09/23 00:58:26;;;;;;;8.23;5.13;;;;;;;20.81;72.70;99434.13;5083489;28;20630;-61
2023/09/23 01:00:55;;;;;;;7.95;4.70;;;;;;;20.80;73.12;99432.44;5089698;28;20545;-64
2023/09/23 01:03:24;;;;;;;8.02;5.03;;;;;;;20.75;73.04;99425.72;5089361;28;20204;-62
2023/09/23 01:06:14;;;;;;;7.97;4.95;;;;;;;20.74;73.50;99426.66;5087182;28;20204;-63
2023/09/23 01:08:42;;;;;;;8.52;5.38;;;;;;;20.69;73.61;99426.13;5088336;28;20593;-65
2023/09/23 01:11:11;;;;;;;8.20;5.85;;;;;;;20.64;73.98;99422.94;5082995;28;20202;-63
2023/09/23 01:13:42;;;;;;;9.23;5.75;;;;;;;20.65;74.13;99434.25;5088939;28;20232;-62
2023/09/23 01:16:13;;;;;;;7.68;6.03;;;;;;;20.66;74.47;99442.03;5090866;28;20223;-63
2023/09/23 01:18:45;;;;;;;6.60;5.47;;;;;;;20.63;74.22;99426.50;5083531;28;20221;-62
2023/09/23 01:21:13;;;;;;;6.45;4.95;;;;;;;20.67;74.24;99437.63;5088552;28;20201;-62
2023/09/23 01:23:43;;;;;;;6.97;5.10;;;;;;;20.68;74.58;99439.28;5088007;28;20216;-61
2023/09/23 01:26:12;;;;;;;8.13;5.60;;;;;;;20.69;74.40;99435.72;5093547;28;20688;-62
2023/09/23 01:28:40;;;;;;;7.75;4.95;;;;;;;20.69;74.18;99435.72;5092769;28;20197;-64
2023/09/23 01:31:09;;;;;;;10.25;5.47;;;;;;;20.64;74.09;99443.88;5092748;28;20558;-64
2023/09/23 01:33:38;;;;;;;9.48;5.65;;;;;;;20.62;74.48;99439.66;5091999;28;20205;-62
2023/09/23 01:36:07;;;;;;;8.15;5.20;;;;;;;20.60;74.52;99445.00;5081527;28;20232;-63
2023/09/23 01:38:34;;;;;;;7.03;5.20;;;;;;;20.61;74.67;99453.69;5091459;28;20282;-61
2023/09/23 01:41:04;;;;;;;6.55;5.40;;;;;;;20.60;74.49;99446.78;5092231;28;20201;-65
2023/09/23 01:43:32;;;;;;;7.95;5.38;;;;;;;20.61;74.45;99454.53;5087382;28;20225;-61
2023/09/23 01:46:04;;;;;;;8.27;5.90;;;;;;;20.62;74.09;99455.38;5090462;28;20555;-62
2023/09/23 01:48:32;;;;;;;10.00;6.45;;;;;;;20.58;74.37;99449.47;5092593;28;20319;-62
2023/09/23 01:51:01;;;;;;;8.70;6.18;;;;;;;20.58;74.35;99451.28;5091586;28;20205;-60
2023/09/23 01:53:32;;;;;;;10.00;6.57;;;;;;;20.59;74.21;99455.59;5092808;28;20610;-62
2023/09/23 01:56:00;;;;;;;10.05;7.05;;;;;;;20.58;73.92;99453.88;5091775;28;20196;-63
2023/09/23 01:58:29;;;;;;;12.38;7.22;;;;;;;20.57;73.95;99444.38;5090874;28;20230;-62
2023/09/23 02:00:58;;;;;;;9.80;6.95;;;;;;;20.58;73.79;99446.88;5083843;28;20217;-62
2023/09/23 02:03:27;;;;;;;11.43;6.68;;;;;;;20.58;73.95;99449.47;5093380;28;20266;-64
2023/09/23 02:05:56;;;;;;;9.50;6.95;;;;;;;20.56;73.76;99440.91;5088894;28;20209;-63
2023/09/23 02:08:24;;;;;;;15.30;7.70;;;;;;;20.56;74.06;99440.91;5092203;28;20201;-62
2023/09/23 02:10:53;;;;;;;11.60;7.35;;;;;;;20.55;73.79;99439.22;5093515;28;20628;-62
2023/09/23 02:13:20;;;;;;;10.77;6.85;;;;;;;20.54;74.07;99442.75;5087626;28;20663;-62
2023/09/23 02:15:52;;;;;;;13.25;7.60;;;;;;;20.56;73.89;99443.53;5082047;28;20287;-61
2023/09/23 02:18:21;;;;;;;14.77;7.63;;;;;;;20.53;74.08;99435.03;5085923;28;20235;-64
2023/09/23 02:20:51;;;;;;;12.80;7.03;;;;;;;20.56;73.97;99442.69;5093150;28;20674;-63
2023/09/23 02:23:21;;;;;;;9.50;6.63;;;;;;;20.57;73.94;99442.56;5092237;28;20697;-64
2023/09/23 02:25:50;;;;;;;14.02;8.18;;;;;;;20.60;73.64;99436.31;5092310;28;20892;-62
2023/09/23 02:28:18;;;;;;;13.80;8.05;;;;;;;20.56;73.70;99435.66;5092479;28;20581;-61
2023/09/23 02:30:46;;;;;;;12.45;7.80;;;;;;;20.59;73.49;99434.66;5092970;28;20687;-64
2023/09/23 02:33:15;;;;;;;10.88;7.30;;;;;;;20.55;73.42;99439.22;5088474;28;20732;-61
2023/09/23 02:35:43;;;;;;;14.30;7.55;;;;;;;20.53;73.46;99437.63;5091182;28;20604;-60
2023/09/23 02:38:11;;;;;;;12.32;7.75;;;;;;;20.48;73.37;99441.34;5087088;28;20216;-61
2023/09/23 02:40:42;;;;;;;12.85;7.72;;;;;;;20.44;73.83;99439.03;5075321;28;20205;-60
2023/09/23 02:43:10;;;;;;;14.98;7.75;;;;;;;20.42;74.01;99433.03;5089724;28;20284;-63
2023/09/23 02:45:39;;;;;;;17.63;7.80;;;;;;;20.43;73.49;99434.72;5091441;28;20208;-62
2023/09/23 02:48:08;;;;;;;10.75;7.40;;;;;;;20.40;74.02;99429.66;5091959;28;20666;-62
2023/09/23 02:50:38;;;;;;;11.88;7.60;;;;;;;20.45;73.85;99448.56;5091918;28;20204;-63
2023/09/23 02:53:06;;;;;;;13.38;8.00;;;;;;;20.48;73.82;99458.84;5085087;28;20572;-66
2023/09/23 02:55:34;;;;;;;14.68;7.57;;;;;;;20.52;73.67;99446.44;5079944;28;20662;-62
2023/09/23 02:58:02;;;;;;;9.32;7.30;;;;;;;20.54;73.59;99460.25;5086858;28;20269;-61
2023/09/23 03:00:33;;;;;;;12.77;7.32;;;;;;;20.53;73.17;99451.56;5091059;28;20208;-61
2023/09/23 03:03:08;;;;;;;11.25;7.68;;;;;;;20.52;72.90;99454.28;5091728;28;20246;-64
2023/09/23 03:05:44;;;;;;;15.75;7.43;;;;;;;20.45;73.01;99453.78;5083163;28;20201;-62
2023/09/23 03:08:13;;;;;;;10.82;7.57;;;;;;;20.43;73.33;99453.03;5091499;28;20208;-63
2023/09/23 03:10:44;;;;;;;11.60;7.38;;;;;;;20.39;73.09;99455.00;5084539;28;20215;-62
2023/09/23 03:13:12;;;;;;;10.48;7.10;;;;;;;20.37;73.30;99456.88;5092617;28;20234;-61
2023/09/23 03:15:44;;;;;;;9.93;7.03;;;;;;;20.36;73.35;99465.66;5082933;28;20216;-62
2023/09/23 03:18:14;;;;;;;13.95;7.50;;;;;;;20.35;73.33;99458.72;5084216;28;20673;-60
2023/09/23 03:20:45;;;;;;;10.98;6.97;;;;;;;20.32;73.07;99452.84;5089308;28;20823;-61
2023/09/23 03:23:13;;;;;;;11.38;7.10;;;;;;;20.22;73.29;99456.03;5086213;28;20577;-63
2023/09/23 03:25:45;;;;;;;12.40;7.13;;;;;;;20.15;73.43;99462.56;5088701;28;20217;-63
2023/09/23 03:28:15;;;;;;;13.90;7.50;;;;;;;20.12;73.78;99462.75;5090185;28;20234;-63
2023/09/23 03:30:47;;;;;;;11.05;7.47;;;;;;;20.07;73.98;99464.81;5086063;28;20209;-62
2023/09/23 03:33:18;;;;;;;15.55;7.20;;;;;;;20.06;74.21;99476.19;5090343;28;20301;-62
2023/09/23 03:35:49;;;;;;;12.60;7.20;;;;;;;19.99;74.37;99472.25;5091417;28;20237;-61
2023/09/23 03:38:18;;;;;;;13.80;7.65;;;;;;;19.94;74.50;99469.91;5081801;28;20217;-63
2023/09/23 03:40:53;;;;;;;9.30;6.90;;;;;;;19.93;74.56;99478.72;5082851;28;20280;-62
2023/09/23 03:43:22;;;;;;;10.07;7.40;;;;;;;19.90;74.70;99484.13;5078731;28;20247;-63
2023/09/23 03:45:50;;;;;;;12.30;7.47;;;;;;;19.89;74.89;99479.00;5090584;28;20204;-60
2023/09/23 03:48:19;;;;;;;12.20;8.18;;;;;;;19.85;75.05;99475.72;5089851;28;20209;-61
2023/09/23 03:50:52;;;;;;;12.15;7.43;;;;;;;19.82;74.76;99480.28;5090616;28;20291;-61
2023/09/23 03:53:21;;;;;;;11.35;7.70;;;;;;;19.78;75.44;99477.84;5080151;28;20285;-62
2023/09/23 03:55:52;;;;;;;14.57;8.30;;;;;;;19.70;75.49;99487.91;5091003;28;20189;-61
2023/09/23 03:58:20;;;;;;;14.45;8.02;;;;;;;19.64;76.06;99485.63;5090347;28;20524;-62
2023/09/23 04:00:49;;;;;;;12.50;8.20;;;;;;;19.61;76.09;99491.00;5082467;28;20672;-69
2023/09/23 04:03:17;;;;;;;14.90;8.00;;;;;;;19.55;76.29;99487.00;5083848;28;20230;-63
2023/09/23 04:05:55;;;;;;;13.90;8.18;;;;;;;19.53;76.62;99480.16;5081969;28;20246;-61
2023/09/23 04:08:23;;;;;;;16.30;8.70;;;;;;;19.50;76.92;99485.56;5086043;28;20220;-63
2023/09/23 04:10:51;;;;;;;13.00;8.40;;;;;;;19.47;77.26;99506.63;5090623;28;20261;-62
2023/09/23 04:13:19;;;;;;;14.75;8.88;;;;;;;19.46;77.29;99510.19;5090493;28;20300;-63
2023/09/23 04:15:47;;;;;;;9.70;8.32;;;;;;;19.45;77.28;99508.50;5090921;28;20219;-61
2023/09/23 04:18:15;;;;;;;13.93;8.40;;;;;;;19.43;77.40;99515.56;5089664;28;20220;-62
2023/09/23 04:20:45;;;;;;;11.43;8.23;;;;;;;19.41;77.73;99522.66;5086597;28;20624;-61
2023/09/23 04:23:15;;;;;;;10.32;8.02;;;;;;;19.41;77.87;99533.13;5089049;28;20273;-62
2023/09/23 04:25:43;;;;;;;10.93;7.70;;;;;;;19.42;77.81;99535.63;5089026;28;20204;-61
2023/09/23 04:28:12;;;;;;;11.82;8.57;;;;;;;19.41;78.00;99527.91;5089200;28;20249;-61
2023/09/23 04:30:40;;;;;;;11.48;7.93;;;;;;;19.38;77.92;99535.91;5088497;28;20205;-62
2023/09/23 04:33:08;;;;;;;8.07;7.32;;;;;;;19.37;78.00;99531.59;5082889;28;20215;-64
2023/09/23 04:35:37;;;;;;;12.25;8.60;;;;;;;19.31;78.29;99536.22;5087513;28;20248;-62
2023/09/23 04:38:05;;;;;;;13.45;8.88;;;;;;;19.29;78.59;99535.50;5085885;28;20207;-63
2023/09/23 04:40:34;;;;;;;11.55;8.88;;;;;;;19.29;78.83;99539.84;5088800;28;20229;-61
2023/09/23 04:43:04;;;;;;;12.32;9.48;;;;;;;19.22;79.29;99544.59;5085765;28;20655;-62
2023/09/23 04:45:32;;;;;;;17.70;10.80;;;;;;;19.16;80.06;99531.88;5087252;28;20680;-62
2023/09/23 04:48:01;;;;;;;12.80;9.68;;;;;;;19.16;80.24;99544.09;5085375;28;20200;-62
2023/09/23 04:50:29;;;;;;;12.85;10.30;;;;;;;19.13;80.69;99552.09;5086930;28;20192;-62
2023/09/23 04:52:57;;;;;;;16.75;12.07;;;;;;;19.14;80.86;99561.59;5085006;28;20291;-62
2023/09/23 04:55:25;;;;;;;20.85;14.00;;;;;;;19.12;80.98;99577.34;5083643;28;20215;-63
2023/09/23 04:57:55;;;;;;;24.27;15.13;;;;;;;19.10;80.79;99581.81;5091528;28;20641;-63
2023/09/23 05:00:24;;;;;;;19.33;16.08;;;;;;;19.07;81.02;99584.56;5094996;28;20267;-62
2023/09/23 05:02:52;;;;;;;22.70;17.52;;;;;;;19.00;80.65;99578.00;5085975;28;20236;-62
2023/09/23 05:05:20;;;;;;;22.90;16.38;;;;;;;18.97;80.97;99586.03;5094454;28;20201;-61
2023/09/23 05:07:49;;;;;;;22.33;17.77;;;;;;;18.93;80.74;99594.94;5093438;28;20209;-61
2023/09/23 05:10:17;;;;;;;22.45;17.98;;;;;;;18.89;80.24;99612.53;5090362;28;20608;-61
2023/09/23 05:12:45;;;;;;;22.08;17.33;;;;;;;18.81;80.46;99614.69;5093724;28;20356;-62
2023/09/23 05:15:15;;;;;;;19.25;16.65;;;;;;;18.70;80.78;99617.81;5086326;28;20211;-62
2023/09/23 05:17:43;;;;;;;20.30;15.98;;;;;;;18.63;81.02;99637.34;5088235;28;21233;-63
2023/09/23 05:20:25;;;;;;;17.73;15.00;;;;;;;18.53;80.12;99638.75;5089668;28;20212;-63
2023/09/23 05:22:54;;;;;;;17.58;14.00;;;;;;;18.35;80.00;99646.56;5097390;28;20250;-61
2023/09/23 05:25:24;;;;;;;20.17;14.38;;;;;;;18.18;80.64;99645.72;5091983;28;20209;-64
2023/09/23 05:27:54;;;;;;;19.65;14.63;;;;;;;18.08;81.00;99640.13;5088449;28;20241;-61
2023/09/23 05:30:27;;;;;;;18.25;13.20;;;;;;;18.06;81.27;99639.34;5092504;28;20789;-62
2023/09/23 05:32:56;;;;;;;15.75;12.85;;;;;;;18.01;80.75;99636.97;5094689;28;20600;-61
2023/09/23 05:35:25;;;;;;;16.00;13.00;;;;;;;17.96;80.96;99636.31;5082483;28;20746;-63
2023/09/23 05:37:53;;;;;;;16.70;13.18;;;;;;;17.92;81.31;99632.19;5094112;28;20524;-61
2023/09/23 05:40:27;;;;;;;16.58;13.07;;;;;;;17.87;81.27;99639.38;5095408;28;20262;-61
2023/09/23 05:42:56;;;;;;;15.88;12.27;;;;;;;17.90;81.31;99643.63;5092034;28;20295;-60
2023/09/23 05:45:26;;;;;;;15.88;12.32;;;;;;;17.89;81.17;99649.72;5084526;28;20552;-61
2023/09/23 05:47:54;;;;;;;16.70;11.88;;;;;;;17.86;81.08;99654.19;5091494;28;20200;-61
2023/09/23 05:50:25;;;;;;;14.52;11.50;;;;;;;17.84;81.08;99661.22;5090774;28;20537;-59
2023/09/23 05:52:55;;;;;;;15.30;11.95;;;;;;;17.82;80.75;99668.28;5087262;28;20205;-62
2023/09/23 05:55:24;;;;;;;14.43;11.48;;;;;;;17.79;80.80;99655.41;5086943;28;20571;-66
2023/09/23 05:57:54;;;;;;;14.27;11.38;;;;;;;17.82;80.47;99657.84;5086281;28;20201;-66
2023/09/23 06:00:22;;;;;;;15.25;11.70;;;;;;;17.76;80.37;99672.94;5084772;28;20220;-66
2023/09/23 06:02:51;;;;;;;16.23;11.45;;;;;;;17.76;80.54;99689.41;5092445;28;20204;-64
2023/09/23 06:05:20;;;;;;;15.90;12.63;;;;;;;17.72;80.47;99693.03;5090195;28;20204;-66
2023/09/23 06:07:48;;;;;;;16.35;12.32;;;;;;;17.67;80.43;99699.38;5085829;28;20583;-66
2023/09/23 06:10:18;;;;;;;16.20;12.70;;;;;;;17.65;80.54;99693.41;5091692;28;20224;-65
2023/09/23 06:12:46;;;;;;;14.55;12.40;;;;;;;17.66;80.49;99700.28;5092776;28;20214;-63
2023/09/23 06:15:15;;;;;;;17.00;12.27;;;;;;;17.62;80.65;99717.84;5092820;28;20657;-63
2023/09/23 06:17:42;;;;;;;13.50;11.55;;;;;;;17.63;80.44;99715.13;5083766;28;20287;-64
2023/09/23 06:20:12;;;;;;;12.77;11.02;;;;;;;17.66;80.34;99723.75;5088284;28;20319;-63
2023/09/23 06:22:40;;;;;;;15.18;11.18;;;;;;;17.65;80.40;99738.53;5088551;28;20209;-62
2023/09/23 06:25:10;;;;;;;12.80;10.43;;;;;;;17.65;80.21;99743.75;5091362;28;20646;-62
2023/09/23 06:27:38;;;;;;;13.15;10.40;;;;;;;17.67;80.27;99754.09;5093612;28;20211;-63
2023/09/23 06:30:07;;;;;;;11.48;10.27;;;;;;;17.68;80.05;99748.00;5092999;28;20675;-69
2023/09/23 06:32:35;;;;;;;11.20;9.32;;;;;;;17.72;80.07;99728.69;5085967;28;20204;-67
2023/09/23 06:35:03;;;;;;;11.85;9.32;;;;;;;17.70;79.66;99733.94;5087702;28;20270;-66
2023/09/23 06:37:33;;;;;;;11.35;9.10;;;;;;;17.72;79.33;99747.78;5082133;28;20219;-67
2023/09/23 06:40:01;;;;;;;11.05;8.40;;;;;;;17.70;79.72;99762.63;5086758;28;20749;-67
2023/09/23 06:42:29;;;;;;;8.95;7.85;;;;;;;17.70;79.50;99766.97;5090982;28;20802;-65
2023/09/23 06:44:58;;;;;;;10.40;7.93;;;;;;;17.66;79.54;99755.84;5093041;28;20205;-66
2023/09/23 06:47:27;;;;;;;10.00;8.52;;;;;;;17.73;79.72;99770.28;5090666;28;20274;-65
2023/09/23 06:49:55;;;;;;;11.73;8.82;;;;;;;17.78;79.53;99781.38;5091821;28;20237;-63
2023/09/23 06:52:23;;;;;;;12.23;8.55;;;;;;;17.85;78.92;99781.94;5090633;28;20220;-64
2023/09/23 06:54:53;;;;;;;10.95;8.38;;;;;;;17.92;79.24;99772.94;5090411;28;20652;-66
2023/09/23 06:57:20;;;;;;;13.20;8.00;;;;;;;18.01;78.67;99784.72;5083640;28;20619;-68
2023/09/23 06:59:49;;;;;;;10.07;7.78;;;;;;;17.99;77.80;99799.56;5082931;28;20247;-69
2023/09/23 07:02:17;;;;;;;7.22;6.55;;;;;;;17.99;77.97;99808.25;5089281;28;20196;-66
2023/09/23 07:04:45;;;;;;;8.23;6.30;;;;;;;17.96;78.24;99820.56;5092119;28;20273;-66
2023/09/23 07:07:13;;;;;;;8.52;6.30;;;;;;;17.98;77.90;99830.00;5089073;28;20200;-66
2023/09/23 07:09:41;;;;;;;8.45;6.10;;;;;;;17.95;78.06;99826.69;5080990;28;20916;-66
2023/09/23 07:12:12;;;;;;;7.07;5.50;;;;;;;17.92;78.33;99821.63;5087189;28;20200;-66
2023/09/23 07:14:40;;;;;;;5.65;5.00;;;;;;;17.93;78.39;99831.13;5092305;28;20318;-66
2023/09/23 07:17:08;;;;;;;7.45;5.57;;;;;;;17.90;78.67;99815.66;5080547;28;20219;-66
2023/09/23 07:19:37;;;;;;;4.75;4.35;;;;;;;17.91;78.64;99832.97;5089085;28;20200;-68
2023/09/23 07:22:05;;;;;;;5.03;4.63;;;;;;;17.88;78.60;99844.38;5091745;28;20212;-66
2023/09/23 07:24:35;;;;;;;4.97;4.40;;;;;;;17.87;78.93;99853.13;5085603;28;20640;-68
2023/09/23 07:27:03;;;;;;;5.38;3.72;;;;;;;17.91;78.56;99859.03;5089051;28;20201;-69
2023/09/23 07:29:33;;;;;;;3.95;3.50;;;;;;;17.88;78.36;99873.03;5088788;28;20720;-67
2023/09/23 07:32:01;;;;;;;3.20;2.90;;;;;;;17.89;78.64;99866.06;5086770;28;20690;-65
2023/09/23 07:34:29;;;;;;;3.13;2.83;;;;;;;17.90;78.54;99867.78;5088553;28;20671;-65
2023/09/23 07:36:58;;;;;;;2.53;2.33;;;;;;;17.93;78.39;99870.22;5088862;28;20209;-66
2023/09/23 07:39:26;;;;;;;2.30;2.10;;;;;;;17.95;78.00;99863.19;5088882;28;20540;-64
2023/09/23 07:41:54;;;;;;;2.78;2.42;;;;;;;18.00;77.56;99863.81;5091561;28;20266;-64
2023/09/23 07:44:22;;;;;;;2.35;1.98;;;;;;;18.03;77.40;99868.91;5080629;28;20208;-68
2023/09/23 07:46:52;;;;;;;6.15;2.47;;;;;;;18.08;77.26;99869.56;5079947;28;20611;-66
2023/09/23 07:49:20;;;;;;;3.45;2.42;;;;;;;18.15;77.14;99868.34;5083344;28;20205;-70
2023/09/23 07:51:48;;;;;;;2.25;2.05;;;;;;;18.20;76.59;99865.53;5093295;28;20201;-63
2023/09/23 07:54:16;;;;;;;1.55;1.45;;;;;;;18.25;76.47;99864.41;5087796;28;20228;-64
2023/09/23 07:56:44;;;;;;;2.42;1.65;;;;;;;18.31;76.07;99868.50;5081285;28;20613;-65
2023/09/23 07:59:12;;;;;;;2.55;1.65;;;;;;;18.38;76.11;99874.28;5087377;28;20652;-69
2023/09/23 08:01:40;;;;;;;2.60;1.42;;;;;;;18.40;75.30;99856.78;5091719;28;20683;-65
2023/09/23 08:04:10;;;;;;;2.80;1.65;;;;;;;18.43;74.72;99861.88;5086994;28;20766;-66
2023/09/23 08:06:38;;;;;;;1.50;1.40;;;;;;;18.44;75.01;99873.97;5089921;28;20196;-65
2023/09/23 08:09:08;;;;;;;2.85;1.58;;;;;;;18.46;74.74;99893.88;5093824;28;20647;-66
2023/09/23 08:11:36;;;;;;;2.25;1.50;;;;;;;18.46;74.25;99900.88;5089495;28;20227;-64
2023/09/23 08:14:05;;;;;;;1.67;1.58;;;;;;;18.46;74.51;99898.25;5083352;28;20200;-66
2023/09/23 08:16:33;;;;;;;1.30;1.20;;;;;;;18.46;74.27;99890.44;5087552;28;20293;-66
2023/09/23 08:19:01;;;;;;;4.97;1.80;;;;;;;18.46;74.32;99893.03;5086705;28;20235;-66
2023/09/23 08:21:30;;;;;;;1.50;1.40;;;;;;;18.45;73.91;99901.78;5086258;28;20212;-69
2023/09/23 08:23:58;;;;;;;2.20;1.45;;;;;;;18.44;73.86;99910.50;5082664;28;20208;-70
2023/09/23 08:26:26;;;;;;;1.40;1.30;;;;;;;18.35;74.11;99906.56;5090284;28;20663;-71
2023/09/23 08:28:57;;;;;;;1.60;1.50;;;;;;;18.33;74.53;99904.00;5087642;28;20207;-71
2023/09/23 08:31:24;;;;;;;2.30;1.63;;;;;;;18.37;74.28;99898.66;5079878;28;20210;-69
2023/09/23 08:33:52;;;;;;;1.55;1.45;;;;;;;18.37;74.83;99909.09;5086849;28;20196;-72
2023/09/23 08:36:20;;;;;;;1.33;1.23;;;;;;;18.40;74.20;99917.63;5079984;28;20232;-71
2023/09/23 08:38:50;;;;;;;1.55;1.42;;;;;;;18.43;73.66;99924.47;5088592;28;20687;-69
2023/09/23 08:41:22;;;;;;;1.33;1.23;;;;;;;18.33;73.64;99935.31;5087882;28;20729;-69
2023/09/23 08:43:52;;;;;;;1.58;1.20;;;;;;;18.28;74.20;99932.09;5076445;28;20202;-66
2023/09/23 08:46:22;;;;;;;1.00;1.00;;;;;;;18.31;74.17;99937.16;5083906;28;20222;-66
2023/09/23 08:48:50;;;;;;;1.63;1.13;;;;;;;18.33;74.31;99939.69;5084240;28;20204;-69
2023/09/23 08:51:20;;;;;;;1.35;1.00;;;;;;;18.33;73.89;99944.91;5084943;28;20595;-68
2023/09/23 08:53:52;;;;;;;2.10;1.00;;;;;;;18.30;73.77;99961.56;5088058;28;20204;-68
2023/09/23 08:56:21;;;;;;;2.28;1.20;;;;;;;18.32;73.94;99959.72;5083066;28;20254;-69
2023/09/23 08:58:50;;;;;;;2.42;1.25;;;;;;;18.35;74.41;99949.16;5081996;28;20193;-67
2023/09/23 09:01:18;;;;;;;2.25;1.48;;;;;;;18.44;73.98;99955.69;5077747;28;20672;-67
2023/09/23 09:03:47;;;;;;;2.45;1.50;;;;;;;18.50;73.87;99955.44;5081093;28;20212;-68
2023/09/23 09:06:17;;;;;;;2.67;1.55;;;;;;;18.58;73.42;99947.25;5084191;28;20249;-66
2023/09/23 09:08:45;;;;;;;1.45;1.35;;;;;;;18.73;73.87;99943.13;5090877;28;20209;-62
2023/09/23 09:11:23;;;;;;;1.70;1.60;;;;;;;18.92;72.09;99930.88;5084386;28;20227;-68
2023/09/23 09:13:52;;;;;;;1.70;1.60;;;;;;;18.98;71.26;99927.13;5086859;28;20677;-65
2023/09/23 09:16:20;;;;;;;1.63;1.52;;;;;;;18.99;71.25;99934.03;5088829;28;20288;-62
2023/09/23 09:18:52;;;;;;;1.88;1.50;;;;;;;19.03;71.22;99944.25;5085830;28;20213;-65
2023/09/23 09:21:20;;;;;;;3.72;1.48;;;;;;;19.05;70.93;99946.81;5087092;28;20374;-65
2023/09/23 09:23:48;;;;;;;3.35;1.70;;;;;;;19.06;70.72;99948.50;5088367;28;20653;-65
2023/09/23 09:26:18;;;;;;;1.58;1.48;;;;;;;19.07;71.01;99952.78;5087340;28;20232;-68
2023/09/23 09:28:48;;;;;;;4.00;1.50;;;;;;;19.10;70.88;99944.81;5082760;28;20547;-66
2023/09/23 09:31:18;;;;;;;1.70;1.60;;;;;;;19.11;70.21;99950.88;5084529;28;20667;-62
2023/09/23 09:33:48;;;;;;;1.40;1.30;;;;;;;19.07;70.51;99947.56;5086668;28;20212;-64
2023/09/23 09:36:19;;;;;;;2.17;1.80;;;;;;;19.00;70.55;99948.78;5088632;28;20239;-63
2023/09/23 09:38:50;;;;;;;1.70;1.60;;;;;;;18.99;70.32;99947.09;5087633;28;20197;-62
2023/09/23 09:41:22;;;;;;;1.40;1.30;;;;;;;18.98;70.29;99963.69;5086652;28;20655;-65
2023/09/23 09:43:52;;;;;;;1.67;1.20;;;;;;;18.95;70.36;99969.91;5081307;28;20217;-63
2023/09/23 09:46:21;;;;;;;1.00;1.00;;;;;;;18.91;69.90;99980.56;5081051;28;20296;-65
2023/09/23 09:48:54;;;;;;;2.15;1.30;;;;;;;18.82;70.00;99989.69;5089580;28;20204;-69
2023/09/23 09:51:26;;;;;;;1.35;1.20;;;;;;;18.74;70.46;99989.19;5089374;28;20201;-69
2023/09/23 09:53:59;;;;;;;1.02;1.02;;;;;;;18.64;70.66;99978.28;5089643;28;20209;-65
2023/09/23 09:56:32;;;;;;;1.20;1.10;;;;;;;18.61;71.06;99998.47;5091698;28;20265;-64
2023/09/23 09:59:05;;;;;;;1.00;1.00;;;;;;;18.62;71.11;100008.81;5094451;28;20711;-66
2023/09/23 10:01:36;;;;;;;1.33;1.23;;;;;;;18.67;71.56;100012.09;5089953;28;20236;-63
2023/09/23 10:04:11;;;;;;;1.95;1.27;;;;;;;18.69;71.87;100010.25;5092961;28;20607;-64
2023/09/23 10:06:41;;;;;;;3.22;1.13;;;;;;;18.74;72.16;100013.53;5091079;28;20352;-63
2023/09/23 10:09:16;;;;;;;1.50;1.40;;;;;;;18.85;72.42;100020.84;5086653;28;20658;-62
2023/09/23 10:11:53;;;;;;;1.05;1.05;;;;;;;18.89;71.89;100024.16;5087492;28;20204;-65
2023/09/23 10:14:23;;;;;;;1.75;1.63;;;;;;;18.88;71.56;100030.31;5087071;28;20217;-63
2023/09/23 10:16:52;;;;;;;2.40;2.20;;;;;;;18.90;72.43;100031.09;5092762;28;20702;-67
2023/09/23 10:19:31;;;;;;;1.77;1.67;;;;;;;18.89;72.79;100032.00;5093438;28;20651;-70
2023/09/23 10:22:13;;;;;;;1.80;1.70;;;;;;;18.92;72.89;100034.47;5091899;28;20212;-63
2023/09/23 10:24:42;;;;;;;1.60;1.50;;;;;;;18.93;72.47;100031.81;5085259;28;20766;-62
2023/09/23 10:27:11;;;;;;;1.55;1.45;;;;;;;18.90;72.33;100026.72;5092810;28;20200;-64
2023/09/23 10:29:45;;;;;;;4.15;1.70;;;;;;;18.90;72.02;100018.91;5092914;28;20651;-63
2023/09/23 10:32:14;;;;;;;1.48;1.38;;;;;;;18.89;71.97;100025.03;5081250;28;20581;-62
2023/09/23 10:34:48;;;;;;;1.60;1.50;;;;;;;18.91;72.33;100019.72;5088818;28;20236;-64
2023/09/23 10:37:29;;;;;;;1.63;1.52;;;;;;;18.94;72.25;100014.38;5092952;28;20193;-65
2023/09/23 10:40:05;;;;;;;1.48;1.40;;;;;;;18.99;72.27;100022.84;5082848;28;20227;-64
2023/09/23 10:42:35;;;;;;;1.80;1.70;;;;;;;19.02;72.46;100022.69;5079401;28;20223;-68
2023/09/23 10:45:05;;;;;;;1.50;1.40;;;;;;;18.99;72.48;100028.91;5094482;28;20266;-68
2023/09/23 10:47:35;;;;;;;1.73;1.60;;;;;;;19.00;73.04;100024.50;5089387;28;20208;-68
2023/09/23 10:50:05;;;;;;;2.22;2.10;;;;;;;19.05;72.92;100036.44;5089280;28;20678;-66
2023/09/23 10:52:33;;;;;;;2.20;2.10;;;;;;;19.06;72.72;100039.91;5082419;28;20711;-64
2023/09/23 10:55:01;;;;;;;2.42;2.20;;;;;;;19.02;72.70;100043.59;5086631;28;20288;-63
2023/09/23 10:57:29;;;;;;;2.35;2.15;;;;;;;19.02;72.96;100043.59;5084996;28;20330;-62
2023/09/23 10:59:59;;;;;;;2.15;2.05;;;;;;;19.04;72.23;100047.81;5086822;28;20204;-64
2023/09/23 11:02:31;;;;;;;2.97;2.78;;;;;;;19.03;72.38;100053.09;5088597;28;20224;-62
2023/09/23 11:05:00;;;;;;;2.65;2.45;;;;;;;19.03;73.07;100053.09;5085653;28;20292;-62
2023/09/23 11:07:30;;;;;;;3.47;2.60;;;;;;;19.09;73.15;100055.44;5083511;28;20262;-64
2023/09/23 11:09:58;;;;;;;2.65;2.45;;;;;;;19.06;72.54;100058.19;5079777;28;20671;-62
2023/09/23 11:12:33;;;;;;;2.75;2.33;;;;;;;18.99;72.49;100064.63;5079833;28;20674;-62
2023/09/23 11:15:02;;;;;;;2.25;2.15;;;;;;;18.97;73.38;100066.47;5088290;28;20627;-64
2023/09/23 11:17:34;;;;;;;2.38;2.17;;;;;;;18.93;72.70;100063.16;5085487;28;20237;-61
2023/09/23 11:20:04;;;;;;;2.58;2.40;;;;;;;18.86;73.20;100063.50;5089273;28;20992;-62
2023/09/23 11:22:33;;;;;;;2.80;2.60;;;;;;;18.80;73.91;100065.44;5091602;28;20223;-62
2023/09/23 11:25:01;;;;;;;2.25;2.03;;;;;;;18.79;74.11;100068.97;5079104;28;20204;-63
2023/09/23 11:27:30;;;;;;;8.32;7.20;;;;;;;18.85;73.99;100074.84;5079560;28;20209;-62
2023/09/23 11:29:58;;;;;;;2.22;2.03;;;;;;;18.86;73.55;100080.00;5087617;28;20211;-62
2023/09/23 11:32:27;;;;;;;1.88;1.77;;;;;;;18.82;72.97;100078.44;5076801;28;20258;-64
2023/09/23 11:34:57;;;;;;;1.90;1.80;;;;;;;18.81;73.29;100066.28;5087398;28;20923;-62
2023/09/23 11:37:25;;;;;;;2.03;1.92;;;;;;;18.88;72.99;100074.69;5084722;28;20660;-62